sensor_id;sensor_type;location;lat;lon;timestamp;P1;durP1;ratioP1;P2;durP2;ratioP2
43048;SDS011;28673;44.412;11.918;2023-08-08T00:01:31;2.97;;;1.38;;
43048;SDS011;28673;44.412;11.918;2023-08-08T00:03:57;3.83;;;1.58;;
43048;SDS011;28673;44.412;11.918;2023-08-08T00:06:23;2.58;;;1.20;;
43048;SDS011;28673;44.412;11.918;2023-08-08T00:08:49;3.15;;;1.30;;
43048;SDS011;28673;44.412;11.918;2023-08-08T00:11:15;1.40;;;0.85;;
43048;SDS011;28673;44.412;11.918;2023-08-08T00:13:40;1.80;;;0.93;;
43048;SDS011;28673;44.412;11.918;2023-08-08T00:16:06;1.58;;;1.00;;
43048;SDS011;28673;44.412;11.918;2023-08-08T00:18:32;3.50;;;1.13;;
43048;SDS011;28673;44.412;11.918;2023-08-08T00:20:58;7.15;;;1.13;;
43048;SDS011;28673;44.412;11.918;2023-08-08T00:23:24;2.45;;;1.05;;
43048;SDS011;28673;44.412;11.918;2023-08-08T00:25:49;2.25;;;1.13;;
43048;SDS011;28673;44.412;11.918;2023-08-08T00:28:16;2.05;;;1.13;;
43048;SDS011;28673;44.412;11.918;2023-08-08T00:30:43;1.40;;;0.77;;
43048;SDS011;28673;44.412;11.918;2023-08-08T00:33:08;2.15;;;1.40;;
43048;SDS011;28673;44.412;11.918;2023-08-08T00:35:35;1.65;;;1.13;;
43048;SDS011;28673;44.412;11.918;2023-08-08T00:38:01;2.72;;;0.90;;
43048;SDS011;28673;44.412;11.918;2023-08-08T00:40:26;1.42;;;1.15;;
43048;SDS011;28673;44.412;11.918;2023-08-08T00:42:52;3.75;;;1.02;;
43048;SDS011;28673;44.412;11.918;2023-08-08T00:45:18;2.03;;;1.13;;
43048;SDS011;28673;44.412;11.918;2023-08-08T00:47:44;3.80;;;1.00;;
43048;SDS011;28673;44.412;11.918;2023-08-08T00:50:10;3.53;;;1.33;;
43048;SDS011;28673;44.412;11.918;2023-08-08T00:52:37;4.55;;;1.25;;
43048;SDS011;28673;44.412;11.918;2023-08-08T00:55:05;1.02;;;0.70;;
43048;SDS011;28673;44.412;11.918;2023-08-08T00:57:31;1.98;;;0.98;;
43048;SDS011;28673;44.412;11.918;2023-08-08T00:59:57;1.85;;;0.95;;
43048;SDS011;28673;44.412;11.918;2023-08-08T01:02:23;1.60;;;1.05;;
43048;SDS011;28673;44.412;11.918;2023-08-08T01:04:49;2.00;;;1.00;;
43048;SDS011;28673;44.412;11.918;2023-08-08T01:10:12;3.45;;;0.80;;
43048;SDS011;28673;44.412;11.918;2023-08-08T01:12:46;1.40;;;1.05;;
43048;SDS011;28673;44.412;11.918;2023-08-08T01:15:15;1.60;;;0.63;;
43048;SDS011;28673;44.412;11.918;2023-08-08T01:17:43;1.40;;;0.70;;
43048;SDS011;28673;44.412;11.918;2023-08-08T01:20:11;1.88;;;0.82;;
43048;SDS011;28673;44.412;11.918;2023-08-08T01:23:26;4.07;;;1.00;;
43048;SDS011;28673;44.412;11.918;2023-08-08T01:25:53;0.88;;;0.60;;
43048;SDS011;28673;44.412;11.918;2023-08-08T01:28:22;0.65;;;0.55;;
43048;SDS011;28673;44.412;11.918;2023-08-08T01:30:48;1.08;;;0.70;;
43048;SDS011;28673;44.412;11.918;2023-08-08T01:33:14;1.92;;;0.88;;
43048;SDS011;28673;44.412;11.918;2023-08-08T01:35:41;3.47;;;0.80;;
43048;SDS011;28673;44.412;11.918;2023-08-08T01:38:12;1.58;;;0.93;;
43048;SDS011;28673;44.412;11.918;2023-08-08T01:40:44;2.60;;;0.95;;
43048;SDS011;28673;44.412;11.918;2023-08-08T01:43:11;0.77;;;0.60;;
43048;SDS011;28673;44.412;11.918;2023-08-08T01:45:39;6.00;;;0.88;;
43048;SDS011;28673;44.412;11.918;2023-08-08T01:48:08;0.85;;;0.63;;
43048;SDS011;28673;44.412;11.918;2023-08-08T01:50:35;1.98;;;0.65;;
43048;SDS011;28673;44.412;11.918;2023-08-08T01:53:01;0.68;;;0.52;;
43048;SDS011;28673;44.412;11.918;2023-08-08T01:55:28;1.13;;;0.70;;
43048;SDS011;28673;44.412;11.918;2023-08-08T01:57:54;1.88;;;0.82;;
43048;SDS011;28673;44.412;11.918;2023-08-08T02:00:19;1.25;;;1.10;;
43048;SDS011;28673;44.412;11.918;2023-08-08T02:02:45;1.15;;;0.90;;
43048;SDS011;28673;44.412;11.918;2023-08-08T02:05:11;1.35;;;0.75;;
43048;SDS011;28673;44.412;11.918;2023-08-08T02:07:37;5.43;;;0.77;;
43048;SDS011;28673;44.412;11.918;2023-08-08T02:10:03;3.83;;;0.85;;
43048;SDS011;28673;44.412;11.918;2023-08-08T02:12:30;1.95;;;0.80;;
43048;SDS011;28673;44.412;11.918;2023-08-08T02:14:57;0.75;;;0.60;;
43048;SDS011;28673;44.412;11.918;2023-08-08T02:17:24;2.35;;;0.60;;
43048;SDS011;28673;44.412;11.918;2023-08-08T02:19:51;1.73;;;0.80;;
43048;SDS011;28673;44.412;11.918;2023-08-08T02:22:18;1.83;;;0.82;;
43048;SDS011;28673;44.412;11.918;2023-08-08T02:24:44;1.27;;;0.82;;
43048;SDS011;28673;44.412;11.918;2023-08-08T02:27:11;0.50;;;0.50;;
43048;SDS011;28673;44.412;11.918;2023-08-08T02:29:37;4.13;;;0.60;;
43048;SDS011;28673;44.412;11.918;2023-08-08T02:32:03;1.38;;;0.82;;
43048;SDS011;28673;44.412;11.918;2023-08-08T02:34:29;4.68;;;0.85;;
43048;SDS011;28673;44.412;11.918;2023-08-08T02:36:55;1.08;;;0.93;;
43048;SDS011;28673;44.412;11.918;2023-08-08T02:39:21;4.93;;;1.52;;
43048;SDS011;28673;44.412;11.918;2023-08-08T02:41:47;2.38;;;1.45;;
43048;SDS011;28673;44.412;11.918;2023-08-08T02:44:12;2.42;;;1.50;;
43048;SDS011;28673;44.412;11.918;2023-08-08T02:46:39;2.97;;;1.40;;
43048;SDS011;28673;44.412;11.918;2023-08-08T02:49:05;6.80;;;1.27;;
43048;SDS011;28673;44.412;11.918;2023-08-08T02:51:32;3.42;;;1.35;;
43048;SDS011;28673;44.412;11.918;2023-08-08T02:53:57;2.95;;;1.20;;
43048;SDS011;28673;44.412;11.918;2023-08-08T02:56:24;3.47;;;0.95;;
43048;SDS011;28673;44.412;11.918;2023-08-08T02:58:51;3.72;;;1.55;;
43048;SDS011;28673;44.412;11.918;2023-08-08T03:01:17;0.90;;;0.68;;
43048;SDS011;28673;44.412;11.918;2023-08-08T03:03:45;1.20;;;0.73;;
43048;SDS011;28673;44.412;11.918;2023-08-08T03:06:12;0.95;;;0.70;;
43048;SDS011;28673;44.412;11.918;2023-08-08T03:08:38;1.95;;;0.93;;
43048;SDS011;28673;44.412;11.918;2023-08-08T03:11:05;2.08;;;0.82;;
43048;SDS011;28673;44.412;11.918;2023-08-08T03:13:31;1.20;;;0.60;;
43048;SDS011;28673;44.412;11.918;2023-08-08T03:15:58;2.15;;;0.90;;
43048;SDS011;28673;44.412;11.918;2023-08-08T03:18:24;2.75;;;0.85;;
43048;SDS011;28673;44.412;11.918;2023-08-08T03:20:51;1.15;;;0.70;;
43048;SDS011;28673;44.412;11.918;2023-08-08T03:23:18;1.08;;;0.75;;
43048;SDS011;28673;44.412;11.918;2023-08-08T03:25:44;1.92;;;0.98;;
43048;SDS011;28673;44.412;11.918;2023-08-08T03:28:12;1.10;;;0.70;;
43048;SDS011;28673;44.412;11.918;2023-08-08T03:30:37;1.42;;;1.05;;
43048;SDS011;28673;44.412;11.918;2023-08-08T03:33:05;1.60;;;0.85;;
43048;SDS011;28673;44.412;11.918;2023-08-08T03:35:31;1.65;;;1.00;;
43048;SDS011;28673;44.412;11.918;2023-08-08T03:37:56;0.82;;;0.50;;
43048;SDS011;28673;44.412;11.918;2023-08-08T03:40:23;2.03;;;0.90;;
43048;SDS011;28673;44.412;11.918;2023-08-08T03:42:49;1.13;;;0.85;;
43048;SDS011;28673;44.412;11.918;2023-08-08T03:45:14;2.97;;;1.45;;
43048;SDS011;28673;44.412;11.918;2023-08-08T03:47:40;1.23;;;1.00;;
43048;SDS011;28673;44.412;11.918;2023-08-08T03:50:07;1.73;;;1.00;;
43048;SDS011;28673;44.412;11.918;2023-08-08T03:52:34;0.93;;;0.70;;
43048;SDS011;28673;44.412;11.918;2023-08-08T03:55:02;1.13;;;0.75;;
43048;SDS011;28673;44.412;11.918;2023-08-08T03:57:28;1.08;;;0.90;;
43048;SDS011;28673;44.412;11.918;2023-08-08T03:59:55;1.88;;;0.82;;
43048;SDS011;28673;44.412;11.918;2023-08-08T04:02:21;1.83;;;0.73;;
43048;SDS011;28673;44.412;11.918;2023-08-08T04:04:47;1.27;;;0.63;;
43048;SDS011;28673;44.412;11.918;2023-08-08T04:07:13;2.10;;;1.02;;
43048;SDS011;28673;44.412;11.918;2023-08-08T04:09:39;1.30;;;0.80;;
43048;SDS011;28673;44.412;11.918;2023-08-08T04:12:04;0.82;;;0.80;;
43048;SDS011;28673;44.412;11.918;2023-08-08T04:14:31;2.30;;;1.00;;
43048;SDS011;28673;44.412;11.918;2023-08-08T04:16:58;1.65;;;1.02;;
43048;SDS011;28673;44.412;11.918;2023-08-08T04:19:23;4.93;;;1.23;;
43048;SDS011;28673;44.412;11.918;2023-08-08T04:21:49;1.50;;;0.80;;
43048;SDS011;28673;44.412;11.918;2023-08-08T04:24:15;2.67;;;0.85;;
43048;SDS011;28673;44.412;11.918;2023-08-08T04:26:41;5.30;;;2.10;;
43048;SDS011;28673;44.412;11.918;2023-08-08T04:29:07;8.38;;;2.70;;
43048;SDS011;28673;44.412;11.918;2023-08-08T04:31:33;6.85;;;1.60;;
43048;SDS011;28673;44.412;11.918;2023-08-08T04:33:59;2.25;;;1.52;;
43048;SDS011;28673;44.412;11.918;2023-08-08T04:36:29;4.72;;;1.52;;
43048;SDS011;28673;44.412;11.918;2023-08-08T04:38:55;3.03;;;1.83;;
43048;SDS011;28673;44.412;11.918;2023-08-08T04:41:21;5.72;;;1.45;;
43048;SDS011;28673;44.412;11.918;2023-08-08T04:43:47;5.88;;;1.25;;
43048;SDS011;28673;44.412;11.918;2023-08-08T04:46:13;1.58;;;1.23;;
43048;SDS011;28673;44.412;11.918;2023-08-08T04:48:39;1.88;;;0.95;;
43048;SDS011;28673;44.412;11.918;2023-08-08T04:51:05;2.95;;;1.20;;
43048;SDS011;28673;44.412;11.918;2023-08-08T04:53:31;3.70;;;1.90;;
43048;SDS011;28673;44.412;11.918;2023-08-08T04:55:57;1.75;;;1.23;;
43048;SDS011;28673;44.412;11.918;2023-08-08T04:58:23;3.28;;;0.98;;
43048;SDS011;28673;44.412;11.918;2023-08-08T05:00:49;4.32;;;0.68;;
43048;SDS011;28673;44.412;11.918;2023-08-08T05:03:16;1.73;;;1.38;;
43048;SDS011;28673;44.412;11.918;2023-08-08T05:05:42;6.90;;;0.88;;
43048;SDS011;28673;44.412;11.918;2023-08-08T05:08:13;2.97;;;1.17;;
43048;SDS011;28673;44.412;11.918;2023-08-08T05:10:39;1.23;;;0.88;;
43048;SDS011;28673;44.412;11.918;2023-08-08T05:13:05;2.03;;;1.05;;
43048;SDS011;28673;44.412;11.918;2023-08-08T05:15:31;1.08;;;0.90;;
43048;SDS011;28673;44.412;11.918;2023-08-08T05:17:57;2.00;;;1.08;;
43048;SDS011;28673;44.412;11.918;2023-08-08T05:20:24;3.92;;;1.13;;
43048;SDS011;28673;44.412;11.918;2023-08-08T05:22:50;4.60;;;0.80;;
43048;SDS011;28673;44.412;11.918;2023-08-08T05:25:16;4.35;;;1.10;;
43048;SDS011;28673;44.412;11.918;2023-08-08T05:27:42;1.85;;;1.00;;
43048;SDS011;28673;44.412;11.918;2023-08-08T05:30:08;3.25;;;1.83;;
43048;SDS011;28673;44.412;11.918;2023-08-08T05:32:34;0.95;;;0.63;;
43048;SDS011;28673;44.412;11.918;2023-08-08T05:35:00;2.42;;;0.93;;
43048;SDS011;28673;44.412;11.918;2023-08-08T05:37:28;4.68;;;1.65;;
43048;SDS011;28673;44.412;11.918;2023-08-08T05:39:54;6.35;;;2.30;;
43048;SDS011;28673;44.412;11.918;2023-08-08T05:42:20;3.90;;;2.25;;
43048;SDS011;28673;44.412;11.918;2023-08-08T05:44:46;5.32;;;2.22;;
43048;SDS011;28673;44.412;11.918;2023-08-08T05:47:12;3.30;;;1.67;;
43048;SDS011;28673;44.412;11.918;2023-08-08T05:49:38;4.00;;;2.20;;
43048;SDS011;28673;44.412;11.918;2023-08-08T05:52:04;4.03;;;1.58;;
43048;SDS011;28673;44.412;11.918;2023-08-08T05:54:30;4.30;;;1.92;;
43048;SDS011;28673;44.412;11.918;2023-08-08T05:56:56;1.67;;;1.10;;
43048;SDS011;28673;44.412;11.918;2023-08-08T05:59:22;2.20;;;1.10;;
43048;SDS011;28673;44.412;11.918;2023-08-08T06:01:48;6.40;;;1.20;;
43048;SDS011;28673;44.412;11.918;2023-08-08T06:04:13;4.30;;;0.90;;
43048;SDS011;28673;44.412;11.918;2023-08-08T06:06:39;3.08;;;1.23;;
43048;SDS011;28673;44.412;11.918;2023-08-08T06:09:06;12.00;;;1.35;;
43048;SDS011;28673;44.412;11.918;2023-08-08T06:11:34;3.63;;;1.05;;
43048;SDS011;28673;44.412;11.918;2023-08-08T06:14:00;1.60;;;1.00;;
43048;SDS011;28673;44.412;11.918;2023-08-08T06:16:25;2.55;;;1.15;;
43048;SDS011;28673;44.412;11.918;2023-08-08T06:18:52;7.70;;;1.00;;
43048;SDS011;28673;44.412;11.918;2023-08-08T06:21:18;1.63;;;1.02;;
43048;SDS011;28673;44.412;11.918;2023-08-08T06:23:44;4.13;;;1.20;;
43048;SDS011;28673;44.412;11.918;2023-08-08T06:26:09;1.63;;;1.17;;
43048;SDS011;28673;44.412;11.918;2023-08-08T06:28:36;3.10;;;1.10;;
43048;SDS011;28673;44.412;11.918;2023-08-08T06:31:02;1.15;;;0.85;;
43048;SDS011;28673;44.412;11.918;2023-08-08T06:33:27;3.22;;;1.15;;
43048;SDS011;28673;44.412;11.918;2023-08-08T06:35:55;6.97;;;1.10;;
43048;SDS011;28673;44.412;11.918;2023-08-08T06:38:21;7.80;;;1.25;;
43048;SDS011;28673;44.412;11.918;2023-08-08T06:40:47;6.40;;;0.93;;
43048;SDS011;28673;44.412;11.918;2023-08-08T06:43:13;1.95;;;0.93;;
43048;SDS011;28673;44.412;11.918;2023-08-08T06:45:39;1.02;;;0.65;;
43048;SDS011;28673;44.412;11.918;2023-08-08T06:48:05;4.70;;;1.30;;
43048;SDS011;28673;44.412;11.918;2023-08-08T06:50:31;1.17;;;0.73;;
43048;SDS011;28673;44.412;11.918;2023-08-08T06:52:57;1.45;;;0.73;;
43048;SDS011;28673;44.412;11.918;2023-08-08T06:55:23;1.55;;;0.68;;
43048;SDS011;28673;44.412;11.918;2023-08-08T06:57:49;1.25;;;0.70;;
43048;SDS011;28673;44.412;11.918;2023-08-08T07:00:18;3.20;;;0.70;;
43048;SDS011;28673;44.412;11.918;2023-08-08T07:02:44;1.38;;;0.90;;
43048;SDS011;28673;44.412;11.918;2023-08-08T07:05:10;4.55;;;0.73;;
43048;SDS011;28673;44.412;11.918;2023-08-08T07:07:35;1.15;;;0.65;;
43048;SDS011;28673;44.412;11.918;2023-08-08T07:10:04;1.50;;;0.63;;
43048;SDS011;28673;44.412;11.918;2023-08-08T07:12:31;5.13;;;0.73;;
43048;SDS011;28673;44.412;11.918;2023-08-08T07:14:57;7.35;;;1.05;;
43048;SDS011;28673;44.412;11.918;2023-08-08T07:17:23;4.13;;;0.68;;
43048;SDS011;28673;44.412;11.918;2023-08-08T07:19:51;0.98;;;0.70;;
43048;SDS011;28673;44.412;11.918;2023-08-08T07:22:17;4.40;;;0.73;;
43048;SDS011;28673;44.412;11.918;2023-08-08T07:24:43;4.80;;;0.93;;
43048;SDS011;28673;44.412;11.918;2023-08-08T07:27:09;1.20;;;0.80;;
43048;SDS011;28673;44.412;11.918;2023-08-08T07:29:34;5.10;;;1.00;;
43048;SDS011;28673;44.412;11.918;2023-08-08T07:32:02;4.95;;;1.13;;
43048;SDS011;28673;44.412;11.918;2023-08-08T07:34:29;1.27;;;0.60;;
43048;SDS011;28673;44.412;11.918;2023-08-08T07:36:55;4.63;;;0.93;;
43048;SDS011;28673;44.412;11.918;2023-08-08T07:39:21;4.03;;;0.68;;
43048;SDS011;28673;44.412;11.918;2023-08-08T07:41:47;1.92;;;0.90;;
43048;SDS011;28673;44.412;11.918;2023-08-08T07:44:13;1.77;;;0.68;;
43048;SDS011;28673;44.412;11.918;2023-08-08T07:46:39;6.03;;;0.70;;
43048;SDS011;28673;44.412;11.918;2023-08-08T07:49:05;1.13;;;0.68;;
43048;SDS011;28673;44.412;11.918;2023-08-08T07:51:31;1.27;;;0.77;;
43048;SDS011;28673;44.412;11.918;2023-08-08T07:53:58;1.35;;;0.60;;
43048;SDS011;28673;44.412;11.918;2023-08-08T07:56:24;1.83;;;0.70;;
43048;SDS011;28673;44.412;11.918;2023-08-08T07:58:50;4.75;;;1.00;;
43048;SDS011;28673;44.412;11.918;2023-08-08T08:01:16;3.40;;;1.00;;
43048;SDS011;28673;44.412;11.918;2023-08-08T08:03:42;6.00;;;0.93;;
43048;SDS011;28673;44.412;11.918;2023-08-08T08:06:08;0.80;;;0.60;;
43048;SDS011;28673;44.412;11.918;2023-08-08T08:08:34;2.20;;;0.63;;
43048;SDS011;28673;44.412;11.918;2023-08-08T08:11:01;3.67;;;1.00;;
43048;SDS011;28673;44.412;11.918;2023-08-08T08:13:27;1.65;;;0.93;;
43048;SDS011;28673;44.412;11.918;2023-08-08T08:15:53;8.02;;;0.90;;
43048;SDS011;28673;44.412;11.918;2023-08-08T08:18:19;1.95;;;0.95;;
43048;SDS011;28673;44.412;11.918;2023-08-08T08:20:47;1.13;;;0.77;;
43048;SDS011;28673;44.412;11.918;2023-08-08T08:23:14;0.73;;;0.50;;
43048;SDS011;28673;44.412;11.918;2023-08-08T08:25:40;3.85;;;0.82;;
43048;SDS011;28673;44.412;11.918;2023-08-08T08:28:06;2.92;;;0.77;;
43048;SDS011;28673;44.412;11.918;2023-08-08T08:30:32;5.63;;;0.80;;
43048;SDS011;28673;44.412;11.918;2023-08-08T08:32:58;1.67;;;0.80;;
43048;SDS011;28673;44.412;11.918;2023-08-08T08:35:24;0.93;;;0.70;;
43048;SDS011;28673;44.412;11.918;2023-08-08T08:37:53;2.90;;;0.60;;
43048;SDS011;28673;44.412;11.918;2023-08-08T08:40:22;0.82;;;0.60;;
43048;SDS011;28673;44.412;11.918;2023-08-08T08:42:49;1.42;;;0.90;;
43048;SDS011;28673;44.412;11.918;2023-08-08T08:45:16;1.90;;;0.60;;
43048;SDS011;28673;44.412;11.918;2023-08-08T08:47:46;1.27;;;0.60;;
43048;SDS011;28673;44.412;11.918;2023-08-08T08:50:15;3.38;;;0.75;;
43048;SDS011;28673;44.412;11.918;2023-08-08T08:52:43;1.90;;;0.70;;
43048;SDS011;28673;44.412;11.918;2023-08-08T08:55:12;1.20;;;0.30;;
43048;SDS011;28673;44.412;11.918;2023-08-08T08:57:38;4.55;;;0.95;;
43048;SDS011;28673;44.412;11.918;2023-08-08T09:00:05;4.18;;;0.68;;
43048;SDS011;28673;44.412;11.918;2023-08-08T09:02:31;4.32;;;0.52;;
43048;SDS011;28673;44.412;11.918;2023-08-08T09:04:58;1.38;;;0.77;;
43048;SDS011;28673;44.412;11.918;2023-08-08T09:07:27;3.17;;;1.00;;
43048;SDS011;28673;44.412;11.918;2023-08-08T09:09:57;1.10;;;0.50;;
43048;SDS011;28673;44.412;11.918;2023-08-08T09:12:33;2.38;;;0.70;;
43048;SDS011;28673;44.412;11.918;2023-08-08T09:15:05;2.35;;;0.80;;
43048;SDS011;28673;44.412;11.918;2023-08-08T09:17:32;1.13;;;0.85;;
43048;SDS011;28673;44.412;11.918;2023-08-08T09:19:59;1.73;;;0.80;;
43048;SDS011;28673;44.412;11.918;2023-08-08T09:22:33;1.17;;;0.80;;
43048;SDS011;28673;44.412;11.918;2023-08-08T09:25:01;2.40;;;0.57;;
43048;SDS011;28673;44.412;11.918;2023-08-08T09:27:28;4.20;;;0.88;;
43048;SDS011;28673;44.412;11.918;2023-08-08T09:29:57;1.48;;;0.55;;
43048;SDS011;28673;44.412;11.918;2023-08-08T09:32:35;4.05;;;0.70;;
43048;SDS011;28673;44.412;11.918;2023-08-08T09:35:04;1.50;;;0.68;;
43048;SDS011;28673;44.412;11.918;2023-08-08T09:37:39;8.60;;;0.63;;
43048;SDS011;28673;44.412;11.918;2023-08-08T09:40:23;1.95;;;0.70;;
43048;SDS011;28673;44.412;11.918;2023-08-08T09:43:17;2.95;;;1.00;;
43048;SDS011;28673;44.412;11.918;2023-08-08T09:46:21;1.27;;;0.90;;
43048;SDS011;28673;44.412;11.918;2023-08-08T09:48:56;2.47;;;1.35;;
43048;SDS011;28673;44.412;11.918;2023-08-08T09:51:23;1.20;;;0.70;;
43048;SDS011;28673;44.412;11.918;2023-08-08T09:56:23;1.13;;;0.60;;
43048;SDS011;28673;44.412;11.918;2023-08-08T09:58:57;1.77;;;0.50;;
43048;SDS011;28673;44.412;11.918;2023-08-08T10:01:24;0.88;;;0.40;;
43048;SDS011;28673;44.412;11.918;2023-08-08T10:03:51;3.35;;;0.75;;
43048;SDS011;28673;44.412;11.918;2023-08-08T10:06:28;6.53;;;0.52;;
43048;SDS011;28673;44.412;11.918;2023-08-08T10:08:58;1.20;;;0.70;;
43048;SDS011;28673;44.412;11.918;2023-08-08T10:11:25;3.88;;;0.57;;
43048;SDS011;28673;44.412;11.918;2023-08-08T10:13:52;8.25;;;0.60;;
43048;SDS011;28673;44.412;11.918;2023-08-08T10:16:20;2.42;;;0.50;;
43048;SDS011;28673;44.412;11.918;2023-08-08T10:18:58;1.95;;;0.30;;
43048;SDS011;28673;44.412;11.918;2023-08-08T10:21:25;1.58;;;0.60;;
43048;SDS011;28673;44.412;11.918;2023-08-08T10:24:04;4.70;;;0.60;;
43048;SDS011;28673;44.412;11.918;2023-08-08T10:26:32;0.57;;;0.40;;
43048;SDS011;28673;44.412;11.918;2023-08-08T10:28:59;1.13;;;0.55;;
43048;SDS011;28673;44.412;11.918;2023-08-08T10:31:33;0.65;;;0.50;;
43048;SDS011;28673;44.412;11.918;2023-08-08T10:34:03;0.77;;;0.43;;
43048;SDS011;28673;44.412;11.918;2023-08-08T10:36:50;1.35;;;0.40;;
43048;SDS011;28673;44.412;11.918;2023-08-08T10:39:18;0.98;;;0.47;;
43048;SDS011;28673;44.412;11.918;2023-08-08T10:41:49;0.52;;;0.43;;
43048;SDS011;28673;44.412;11.918;2023-08-08T10:44:27;1.10;;;0.65;;
43048;SDS011;28673;44.412;11.918;2023-08-08T10:46:53;0.40;;;0.30;;
43048;SDS011;28673;44.412;11.918;2023-08-08T10:49:20;1.13;;;0.50;;
43048;SDS011;28673;44.412;11.918;2023-08-08T10:51:47;0.47;;;0.30;;
43048;SDS011;28673;44.412;11.918;2023-08-08T10:54:24;1.77;;;0.38;;
43048;SDS011;28673;44.412;11.918;2023-08-08T10:56:56;1.17;;;0.70;;
43048;SDS011;28673;44.412;11.918;2023-08-08T11:02:02;4.63;;;0.50;;
43048;SDS011;28673;44.412;11.918;2023-08-08T11:04:28;1.23;;;0.40;;
43048;SDS011;28673;44.412;11.918;2023-08-08T11:06:57;1.27;;;0.40;;
43048;SDS011;28673;44.412;11.918;2023-08-08T11:09:24;3.70;;;0.50;;
43048;SDS011;28673;44.412;11.918;2023-08-08T11:11:51;1.02;;;0.40;;
43048;SDS011;28673;44.412;11.918;2023-08-08T11:14:21;0.77;;;0.40;;
43048;SDS011;28673;44.412;11.918;2023-08-08T11:16:49;1.02;;;0.55;;
43048;SDS011;28673;44.412;11.918;2023-08-08T11:19:16;1.48;;;0.50;;
43048;SDS011;28673;44.412;11.918;2023-08-08T11:21:45;1.25;;;0.40;;
43048;SDS011;28673;44.412;11.918;2023-08-08T11:24:15;6.65;;;0.50;;
43048;SDS011;28673;44.412;11.918;2023-08-08T11:26:57;0.93;;;0.30;;
43048;SDS011;28673;44.412;11.918;2023-08-08T11:29:25;2.38;;;0.47;;
43048;SDS011;28673;44.412;11.918;2023-08-08T11:31:56;2.17;;;0.32;;
43048;SDS011;28673;44.412;11.918;2023-08-08T11:34:25;3.78;;;0.80;;
43048;SDS011;28673;44.412;11.918;2023-08-08T11:36:51;2.65;;;0.55;;
43048;SDS011;28673;44.412;11.918;2023-08-08T11:39:17;2.67;;;0.50;;
43048;SDS011;28673;44.412;11.918;2023-08-08T11:41:43;1.50;;;0.65;;
43048;SDS011;28673;44.412;11.918;2023-08-08T11:44:12;0.40;;;0.28;;
43048;SDS011;28673;44.412;11.918;2023-08-08T11:46:46;1.48;;;0.40;;
43048;SDS011;28673;44.412;11.918;2023-08-08T11:49:15;0.73;;;0.50;;
43048;SDS011;28673;44.412;11.918;2023-08-08T11:51:46;1.23;;;0.32;;
43048;SDS011;28673;44.412;11.918;2023-08-08T11:54:15;1.08;;;0.40;;
43048;SDS011;28673;44.412;11.918;2023-08-08T11:56:41;1.45;;;0.45;;
43048;SDS011;28673;44.412;11.918;2023-08-08T11:59:07;1.58;;;0.60;;
43048;SDS011;28673;44.412;11.918;2023-08-08T12:01:35;0.65;;;0.40;;
43048;SDS011;28673;44.412;11.918;2023-08-08T12:04:04;1.27;;;0.30;;
43048;SDS011;28673;44.412;11.918;2023-08-08T12:06:32;1.23;;;0.60;;
43048;SDS011;28673;44.412;11.918;2023-08-08T12:09:00;0.60;;;0.30;;
43048;SDS011;28673;44.412;11.918;2023-08-08T12:11:27;1.10;;;0.30;;
43048;SDS011;28673;44.412;11.918;2023-08-08T12:13:58;1.20;;;0.47;;
43048;SDS011;28673;44.412;11.918;2023-08-08T12:16:27;1.20;;;0.40;;
43048;SDS011;28673;44.412;11.918;2023-08-08T12:18:55;0.65;;;0.38;;
43048;SDS011;28673;44.412;11.918;2023-08-08T12:21:21;2.67;;;1.00;;
43048;SDS011;28673;44.412;11.918;2023-08-08T12:23:47;0.88;;;0.50;;
43048;SDS011;28673;44.412;11.918;2023-08-08T12:26:13;7.13;;;0.50;;
43048;SDS011;28673;44.412;11.918;2023-08-08T12:28:39;1.42;;;0.40;;
43048;SDS011;28673;44.412;11.918;2023-08-08T12:31:05;1.10;;;0.50;;
43048;SDS011;28673;44.412;11.918;2023-08-08T12:33:31;4.60;;;0.70;;
43048;SDS011;28673;44.412;11.918;2023-08-08T12:35:56;3.25;;;0.52;;
43048;SDS011;28673;44.412;11.918;2023-08-08T12:38:23;1.65;;;0.95;;
43048;SDS011;28673;44.412;11.918;2023-08-08T12:40:49;0.93;;;0.50;;
43048;SDS011;28673;44.412;11.918;2023-08-08T12:43:15;4.43;;;0.65;;
43048;SDS011;28673;44.412;11.918;2023-08-08T12:45:45;1.63;;;0.55;;
43048;SDS011;28673;44.412;11.918;2023-08-08T12:48:12;1.60;;;0.52;;
43048;SDS011;28673;44.412;11.918;2023-08-08T12:50:38;0.70;;;0.40;;
43048;SDS011;28673;44.412;11.918;2023-08-08T12:53:04;1.75;;;0.57;;
43048;SDS011;28673;44.412;11.918;2023-08-08T12:55:30;1.20;;;0.60;;
43048;SDS011;28673;44.412;11.918;2023-08-08T12:57:56;0.73;;;0.43;;
43048;SDS011;28673;44.412;11.918;2023-08-08T13:00:22;0.75;;;0.50;;
43048;SDS011;28673;44.412;11.918;2023-08-08T13:02:48;8.13;;;0.68;;
43048;SDS011;28673;44.412;11.918;2023-08-08T13:05:14;1.45;;;0.50;;
43048;SDS011;28673;44.412;11.918;2023-08-08T13:07:40;0.47;;;0.40;;
43048;SDS011;28673;44.412;11.918;2023-08-08T13:10:07;0.98;;;0.70;;
43048;SDS011;28673;44.412;11.918;2023-08-08T13:12:33;0.93;;;0.60;;
43048;SDS011;28673;44.412;11.918;2023-08-08T13:14:59;1.70;;;0.50;;
43048;SDS011;28673;44.412;11.918;2023-08-08T13:17:25;1.58;;;0.52;;
43048;SDS011;28673;44.412;11.918;2023-08-08T13:19:51;1.15;;;0.50;;
43048;SDS011;28673;44.412;11.918;2023-08-08T13:22:17;1.75;;;1.00;;
43048;SDS011;28673;44.412;11.918;2023-08-08T13:24:43;2.88;;;0.47;;
43048;SDS011;28673;44.412;11.918;2023-08-08T13:27:09;0.95;;;0.60;;
43048;SDS011;28673;44.412;11.918;2023-08-08T13:29:35;6.88;;;0.75;;
43048;SDS011;28673;44.412;11.918;2023-08-08T13:32:00;0.70;;;0.38;;
43048;SDS011;28673;44.412;11.918;2023-08-08T13:34:27;1.38;;;0.30;;
43048;SDS011;28673;44.412;11.918;2023-08-08T13:36:54;1.48;;;0.47;;
43048;SDS011;28673;44.412;11.918;2023-08-08T13:39:20;0.50;;;0.40;;
43048;SDS011;28673;44.412;11.918;2023-08-08T13:41:46;0.50;;;0.47;;
43048;SDS011;28673;44.412;11.918;2023-08-08T13:44:12;1.00;;;0.70;;
43048;SDS011;28673;44.412;11.918;2023-08-08T13:46:38;4.75;;;0.50;;
43048;SDS011;28673;44.412;11.918;2023-08-08T13:49:04;0.98;;;0.40;;
43048;SDS011;28673;44.412;11.918;2023-08-08T13:51:30;3.03;;;0.65;;
43048;SDS011;28673;44.412;11.918;2023-08-08T13:53:56;1.95;;;0.52;;
43048;SDS011;28673;44.412;11.918;2023-08-08T13:56:21;2.60;;;0.43;;
43048;SDS011;28673;44.412;11.918;2023-08-08T13:58:48;5.93;;;0.50;;
43048;SDS011;28673;44.412;11.918;2023-08-08T14:01:14;4.28;;;0.55;;
43048;SDS011;28673;44.412;11.918;2023-08-08T14:03:40;1.45;;;0.70;;
43048;SDS011;28673;44.412;11.918;2023-08-08T14:06:06;2.05;;;0.40;;
43048;SDS011;28673;44.412;11.918;2023-08-08T14:08:32;4.82;;;0.55;;
43048;SDS011;28673;44.412;11.918;2023-08-08T14:10:58;5.85;;;0.50;;
43048;SDS011;28673;44.412;11.918;2023-08-08T14:13:24;0.68;;;0.45;;
43048;SDS011;28673;44.412;11.918;2023-08-08T14:15:50;2.53;;;0.70;;
43048;SDS011;28673;44.412;11.918;2023-08-08T14:18:17;1.02;;;0.43;;
43048;SDS011;28673;44.412;11.918;2023-08-08T14:20:43;0.63;;;0.50;;
43048;SDS011;28673;44.412;11.918;2023-08-08T14:23:09;0.57;;;0.47;;
43048;SDS011;28673;44.412;11.918;2023-08-08T14:25:35;1.02;;;0.60;;
43048;SDS011;28673;44.412;11.918;2023-08-08T14:28:01;1.83;;;0.35;;
43048;SDS011;28673;44.412;11.918;2023-08-08T14:30:29;2.47;;;0.60;;
43048;SDS011;28673;44.412;11.918;2023-08-08T14:32:55;4.05;;;0.90;;
43048;SDS011;28673;44.412;11.918;2023-08-08T14:35:21;1.35;;;0.47;;
43048;SDS011;28673;44.412;11.918;2023-08-08T14:37:47;7.25;;;1.17;;
43048;SDS011;28673;44.412;11.918;2023-08-08T14:40:13;0.40;;;0.38;;
43048;SDS011;28673;44.412;11.918;2023-08-08T14:42:39;2.03;;;0.60;;